• Join FlightAware (Why Join?)
  • Login
  • US Flag 
05:47PM EDT


 

Airport Tracker/Info


-or-


 

Live Flight TrackerFlight Track Log ✈ N616GB ✈ 11-May-2013 ✈ KBJI - KFSD

Flight Track Log - Related Links

Times and Time Zones

All times are in EDT time to prevent confusion due to time zone crossing. See the N616GB flight status page for this flight to view local times or setup timezone preferences in your user account.

Time Position Orientation Groundspeed Altitude Reporting Facility
EDT Latitude Longitude Course Direction KTS MPH feet Rate Location/Type
08:05PM 47.4908 -95.0192 199° South 177 204 4,800  Level Minneapolis Center
08:06PM 47.4381 -95.0406 195° South 193 222 6,700 2,160 Climbing Minneapolis Center
08:07PM 47.3825 -95.0647 196° South 201 231 9,300 2,220 Climbing Minneapolis Center
08:08PM 47.3233 -95.0914 197° South 213 245 11,300 1,860 Climbing Minneapolis Center
08:09PM 47.2642 -95.1197 198° South 220 253 13,200 1,800 Climbing Minneapolis Center
08:10PM 47.1064 -95.1335 199° South  Level Estimated
08:10PM 47.1897 -95.1561 198° South 230 265 15,400  Level Minneapolis Center
08:11PM 47.1164 -95.1914 198° South 232 267 17,300 1,560 Climbing Minneapolis Center
08:12PM 47.0539 -95.2203 197° South 236 272 18,600 1,200 Climbing Minneapolis Center
08:13PM 46.9883 -95.2483 196° South 240 276 19,800 1,080 Climbing Minneapolis Center
08:14PM 46.9197 -95.2811 198° South 254 292 20,800 1,020 Climbing Minneapolis Center
08:15PM 46.8506 -95.3142 198° South 261 300 21,900 960 Climbing Minneapolis Center
08:16PM 46.7819 -95.3475 198° South 262 302 22,800 780 Climbing Minneapolis Center
08:17PM 46.7111 -95.3814 198° South 265 305 23,600 600 Climbing Minneapolis Center
08:18PM 46.6378 -95.4175 199° South 277 319 24,100 240 Climbing Minneapolis Center
08:19PM 46.5544 -95.4578 198° South 292 336 24,100 -60 Level Minneapolis Center
08:21PM 46.4719 -95.4978 198° South 309 356 24,000 -60 Descending Minneapolis Center
08:22PM 46.3842 -95.5344 196° South 313 360 24,000  Level Minneapolis Center
08:23PM 46.3011 -95.5711 197° South 311 358 24,000  Level Minneapolis Center
08:24PM 46.2186 -95.6086 197° South 311 358 24,000  Level Minneapolis Center
08:25PM 46.1358 -95.6453 197° South 311 358 24,000  Level Minneapolis Center
08:26PM 46.0367 -95.6900 197° South 311 358 24,000  Level Minneapolis Center
08:27PM 45.9542 -95.7278 198° South 311 358 24,000  Level Minneapolis Center
08:28PM 45.8714 -95.7650 197° South 310 357 24,000  Level Minneapolis Center
08:29PM 45.7889 -95.8025 198° South 312 359 24,000  Level Minneapolis Center
08:30PM 45.7072 -95.8386 197° South 309 356 24,000  Level Minneapolis Center
08:31PM 45.6247 -95.8750 197° South 312 359 24,000  Level Minneapolis Center
08:32PM 45.5428 -95.9125 198° South 310 357 24,000  Level Minneapolis Center
08:33PM 45.4439 -95.9539 196° South 308 354 24,000  Level Minneapolis Center
08:34PM 45.3611 -95.9908 197° South 312 359 24,000  Level Minneapolis Center
08:35PM 45.2642 -96.0317 197° South 305 351 24,000  Level Minneapolis Center
08:36PM 45.1811 -96.0700 198° South 313 360 24,000  Level Minneapolis Center
08:37PM 45.0997 -96.1028 196° South 308 354 24,000 -60 Level Minneapolis Center
08:38PM 45.0189 -96.1381 197° South 306 352 23,900 -600 Descending Minneapolis Center
08:39PM 44.9325 -96.1733 196° South 315 362 22,800 -1,080 Descending Minneapolis Center
08:40PM 44.8450 -96.2131 198° South 326 375 21,700 -1,200 Descending Minneapolis Center
08:41PM 44.7586 -96.2517 198° South 328 377 20,400 -1,320 Descending Minneapolis Center
08:42PM 44.6728 -96.2897 198° South 325 374 19,100 -1,260 Descending Minneapolis Center
08:43PM 44.5858 -96.3281 197° South 328 377 17,900 -1,260 Descending Minneapolis Center
08:44PM 44.4828 -96.3689 196° South 325 374 16,600 -1,380 Descending Minneapolis Center
08:45PM 44.3972 -96.4036 196° South 324 373 15,100 -1,560 Descending Minneapolis Center
08:46PM 44.3128 -96.4394 197° South 323 372 13,500 -1,560 Descending Minneapolis Center
08:47PM 44.2297 -96.4753 197° South 320 368 12,000 -1,380 Descending Minneapolis Center
08:48PM 44.1489 -96.5117 198° South 315 362 10,700 -1,260 Descending Minneapolis Center
08:49PM 44.0700 -96.5461 197° South 308 354 9,500 -1,320 Descending Minneapolis Center
08:50PM 43.9756 -96.5842 196° South 301 346 8,100 -1,380 Descending Minneapolis Center
08:51PM 43.8992 -96.6153 196° South 296 341 6,700 -1,440 Descending Minneapolis Center
08:52PM 43.8253 -96.6456 196° South 288 331 5,200 -1,260 Descending Minneapolis Center
08:53PM 43.7539 -96.6708 194° South 277 319 4,200 -840 Descending Minneapolis Center
08:54PM 43.6839 -96.6797 185° South 265 305 3,600 -420 Descending Minneapolis Center
08:55PM 43.6219 -96.6894 186° South 246 283 3,400 -540 Descending Minneapolis Center
08:56PM 43.5767 -96.6919 182° South 197 227 2,600 -720 Descending Minneapolis Center
08:57PM 43.5636 -96.7322 246° West 168 193 2,000 -600 Descending Minneapolis Center
08:59PM 43.5667 -96.7333 180° South  Level FlightAware Approximate
09:06PM 43.5820 -96.7419 180° South  Level Estimated
09:07PM 43.5820 -96.7419 180° South  Level Estimated